Time;durP1;ratioP1;P1;durP2;ratioP2;P2;SDS_P1;SDS_P2;PMS_P1;PMS_P2;Temp;Humidity;BMP_temperature;BMP_pressure;BME280_temperature;BME280_humidity;BME280_pressure;Samples;Min_cycle;Max_cycle;Signal;HPM_P1;HPM_P2
2022/08/24 00:00:23;;;;;;;9.03;4.60;;;20.90;99.90;;;;;;5026109;28;20456;-57
2022/08/24 00:02:49;;;;;;;11.57;5.23;;;21.40;99.90;;;;;;5024368;28;20506;-56
2022/08/24 00:05:16;;;;;;;10.05;5.30;;;20.80;99.90;;;;;;5025164;28;20387;-56
2022/08/24 00:07:42;;;;;;;10.10;4.88;;;20.60;99.90;;;;;;5025324;28;20391;-57
2022/08/24 00:10:10;;;;;;;7.90;4.78;;;20.50;99.90;;;;;;5027927;28;20391;-57
2022/08/24 00:12:36;;;;;;;10.63;4.90;;;20.40;99.90;;;;;;5028915;28;20942;-57
2022/08/24 00:15:03;;;;;;;10.47;5.00;;;20.40;99.90;;;;;;5029670;28;20399;-54
2022/08/24 00:17:29;;;;;;;9.70;4.88;;;20.30;99.90;;;;;;5030248;28;20399;-57
2022/08/24 00:19:55;;;;;;;9.03;5.20;;;20.30;99.90;;;;;;5030110;28;20394;-57
2022/08/24 00:22:21;;;;;;;10.10;4.87;;;20.20;99.90;;;;;;5029622;28;20398;-56
2022/08/24 00:24:46;;;;;;;11.55;5.65;;;20.20;99.90;;;;;;5030764;28;20383;-57
2022/08/24 00:27:12;;;;;;;9.02;4.80;;;20.20;99.90;;;;;;5028979;28;20908;-56
2022/08/24 00:29:38;;;;;;;12.90;5.07;;;20.20;99.90;;;;;;5029879;28;20829;-56
2022/08/24 00:32:04;;;;;;;11.73;5.50;;;20.20;99.90;;;;;;5029018;28;20387;-56
2022/08/24 00:34:30;;;;;;;11.23;5.10;;;20.10;99.90;;;;;;5029545;28;20486;-58
2022/08/24 00:36:56;;;;;;;8.73;4.90;;;20.10;1.00;;;;;;5029916;28;20391;-56
2022/08/24 00:39:22;;;;;;;10.43;5.20;;;19.90;1.00;;;;;;5029418;28;20466;-56
2022/08/24 00:41:49;;;;;;;9.00;4.53;;;19.80;1.00;;;;;;5029742;28;20963;-56
2022/08/24 00:44:17;;;;;;;9.18;4.97;;;19.70;10.60;;;;;;5028957;28;20717;-56
2022/08/24 00:46:51;;;;;;;10.57;4.80;;;19.50;99.90;;;;;;5030239;28;20368;-56
2022/08/24 00:49:20;;;;;;;10.73;5.25;;;19.50;99.90;;;;;;5028953;28;20877;-58
2022/08/24 00:52:05;;;;;;;8.63;4.80;;;19.60;34.70;;;;;;5028180;28;20456;-56
2022/08/24 00:54:35;;;;;;;12.82;6.00;;;19.70;1.00;;;;;;5029631;28;20460;-56
2022/08/24 00:57:05;;;;;;;9.70;5.40;;;19.60;13.20;;;;;;5029014;28;20402;-54
2022/08/24 00:59:36;;;;;;;10.63;6.10;;;19.40;71.00;;;;;;5029286;28;20442;-56
2022/08/24 01:02:05;;;;;;;11.05;5.82;;;19.50;74.40;;;;;;5029267;28;20914;-54
2022/08/24 01:04:40;;;;;;;12.73;5.90;;;19.40;99.90;;;;;;5029232;28;20391;-56
2022/08/24 01:07:05;;;;;;;11.45;5.90;;;19.20;99.90;;;;;;5027326;28;20383;-56
2022/08/24 01:09:31;;;;;;;11.77;6.40;;;19.20;99.90;;;;;;5028399;28;20848;-56
2022/08/24 01:11:57;;;;;;;10.45;5.68;;;19.20;99.90;;;;;;5027817;28;20391;-55
2022/08/24 01:14:23;;;;;;;12.80;6.82;;;19.20;99.90;;;;;;5029225;28;20465;-56
2022/08/24 01:19:42;;;;;;;11.57;5.90;;;19.30;99.90;;;;;;5028954;28;20383;-56
2022/08/24 01:22:35;;;;;;;14.82;7.00;;;19.40;99.90;;;;;;5028456;28;20391;-56
2022/08/24 01:25:01;;;;;;;11.38;6.80;;;19.30;99.90;;;;;;5027421;28;20391;-54
2022/08/24 01:27:28;;;;;;;13.30;7.70;;;19.20;99.90;;;;;;5029354;28;20721;-56
2022/08/24 01:29:56;;;;;;;13.25;7.18;;;19.30;1.00;;;;;;5029545;28;20489;-56
2022/08/24 01:32:26;;;;;;;12.18;8.00;;;19.10;1.00;;;;;;5028622;28;20418;-56
2022/08/24 01:34:53;;;;;;;13.93;8.18;;;19.10;99.90;;;;;;5028954;28;20585;-56
2022/08/24 01:37:20;;;;;;;13.75;8.00;;;19.10;99.90;;;;;;5026250;28;20384;-56
2022/08/24 01:39:49;;;;;;;12.40;7.90;;;19.10;1.00;;;;;;5029400;28;20489;-56
2022/08/24 01:42:15;;;;;;;12.80;8.23;;;19.00;1.00;;;;;;5028232;28;20868;-56
2022/08/24 01:44:44;;;;;;;14.05;9.07;;;18.90;99.90;;;;;;5028774;28;20757;-56
2022/08/24 01:47:11;;;;;;;15.60;9.50;;;19.00;99.90;;;;;;5028035;28;20434;-56
2022/08/24 01:49:41;;;;;;;14.88;9.88;;;18.80;99.90;;;;;;5028832;28;20394;-56
2022/08/24 01:52:11;;;;;;;16.25;9.90;;;18.80;1.00;;;;;;5028464;28;20406;-56
2022/08/24 01:54:37;;;;;;;14.50;8.90;;;18.80;99.90;;;;;;5029346;28;20502;-56
2022/08/24 01:57:04;;;;;;;14.18;9.27;;;18.80;1.00;;;;;;5028400;28;20896;-54
2022/08/24 01:59:29;;;;;;;14.73;9.25;;;18.90;1.00;;;;;;5028779;28;20394;-56
2022/08/24 02:02:00;;;;;;;13.55;8.70;;;18.70;1.00;;;;;;5028646;28;20705;-55
2022/08/24 02:04:26;;;;;;;16.90;9.57;;;18.70;1.00;;;;;;5028351;28;20514;-56
2022/08/24 02:06:53;;;;;;;12.98;8.90;;;18.60;99.90;;;;;;5027373;28;21845;-56
2022/08/24 02:09:19;;;;;;;14.90;8.77;;;18.50;1.00;;;;;;5025472;28;20477;-56
2022/08/24 02:11:45;;;;;;;15.73;9.27;;;18.30;1.00;;;;;;5029129;28;20429;-56
2022/08/24 02:14:12;;;;;;;15.60;8.90;;;18.40;1.00;;;;;;5027693;28;20418;-56
2022/08/24 02:16:38;;;;;;;16.40;8.88;;;18.50;1.00;;;;;;5025983;28;20394;-56
2022/08/24 02:19:05;;;;;;;13.15;8.13;;;18.50;1.00;;;;;;5027835;28;20771;-54
2022/08/24 02:21:31;;;;;;;15.38;8.82;;;18.30;1.00;;;;;;5028132;28;20927;-56
2022/08/24 02:23:56;;;;;;;12.27;7.83;;;18.50;1.00;;;;;;5028666;28;20386;-56
2022/08/24 02:26:22;;;;;;;13.10;7.13;;;18.50;1.00;;;;;;5025698;28;20490;-56
2022/08/24 02:28:48;;;;;;;11.67;7.40;;;18.50;1.00;;;;;;5028522;28;20399;-56
2022/08/24 02:31:14;;;;;;;11.80;7.60;;;18.40;99.90;;;;;;5027817;28;20379;-56
2022/08/24 02:33:41;;;;;;;11.30;7.00;;;18.50;99.90;;;;;;5027438;28;20423;-56
2022/08/24 02:36:09;;;;;;;11.30;7.38;;;18.40;9.90;;;;;;5027240;28;20394;-55
2022/08/24 02:38:34;;;;;;;11.43;7.30;;;18.40;1.00;;;;;;5027982;28;20383;-56
2022/08/24 02:41:00;;;;;;;11.20;6.47;;;18.30;35.60;;;;;;5027068;28;20383;-56
2022/08/24 02:43:26;;;;;;;11.35;7.10;;;18.20;99.90;;;;;;5026990;28;20422;-57
2022/08/24 02:45:52;;;;;;;11.70;7.28;;;18.10;1.00;;;;;;5027890;28;20461;-56
2022/08/24 02:48:18;;;;;;;15.10;7.63;;;17.90;1.00;;;;;;5027475;28;20725;-55
2022/08/24 02:50:46;;;;;;;13.40;7.63;;;17.80;1.00;;;;;;5028054;28;20501;-56
2022/08/24 02:53:13;;;;;;;12.93;8.00;;;17.80;99.90;;;;;;5027233;28;20487;-55
2022/08/24 02:55:40;;;;;;;13.38;7.80;;;17.80;99.90;;;;;;5025386;28;20421;-56
2022/08/24 02:58:08;;;;;;;14.15;7.75;;;17.90;99.90;;;;;;5027278;28;20391;-55
2022/08/24 03:00:35;;;;;;;12.95;7.60;;;17.90;98.30;;;;;;5027877;28;20387;-56
2022/08/24 03:03:01;;;;;;;11.60;8.07;;;17.90;99.90;;;;;;5028075;28;20406;-55
2022/08/24 03:05:27;;;;;;;10.65;7.28;;;17.80;1.00;;;;;;5026604;28;20409;-56
2022/08/24 03:07:53;;;;;;;14.15;7.63;;;17.70;1.00;;;;;;5028340;28;21826;-55
2022/08/24 03:10:19;;;;;;;13.43;8.00;;;17.70;1.00;;;;;;5024329;28;20465;-56
2022/08/24 03:12:45;;;;;;;14.50;7.97;;;17.60;1.00;;;;;;5027488;28;20926;-56
2022/08/24 03:15:11;;;;;;;13.10;8.43;;;17.60;1.00;;;;;;5027119;28;20464;-56
2022/08/24 03:17:37;;;;;;;16.67;8.20;;;17.70;99.90;;;;;;5027764;28;20957;-56
2022/08/24 03:20:06;;;;;;;11.95;7.85;;;17.60;99.90;;;;;;5027742;28;20851;-54
2022/08/24 03:22:32;;;;;;;14.32;8.30;;;17.60;51.30;;;;;;5027446;28;20430;-55
2022/08/24 03:24:58;;;;;;;13.17;8.50;;;17.60;99.90;;;;;;5024527;28;20815;-56
2022/08/24 03:27:24;;;;;;;15.05;8.70;;;17.60;99.90;;;;;;5025988;28;20407;-56
2022/08/24 03:29:49;;;;;;;13.23;8.43;;;17.60;99.90;;;;;;5027586;28;20398;-56
2022/08/24 03:32:15;;;;;;;14.00;8.10;;;17.60;99.90;;;;;;5026281;28;20944;-56
2022/08/24 03:34:41;;;;;;;13.98;8.80;;;17.50;99.90;;;;;;5027365;28;20391;-56
2022/08/24 03:37:06;;;;;;;14.37;8.90;;;17.50;99.90;;;;;;5026099;28;20498;-54
2022/08/24 03:39:32;;;;;;;14.23;8.57;;;17.50;1.00;;;;;;5027334;28;20383;-56
2022/08/24 03:41:57;;;;;;;14.27;8.60;;;17.40;1.00;;;;;;5025514;28;20883;-56
2022/08/24 03:44:24;;;;;;;12.85;8.00;;;17.40;79.70;;;;;;5027382;28;20395;-55
2022/08/24 03:46:51;;;;;;;13.90;8.60;;;17.20;99.90;;;;;;5031539;28;20434;-56
2022/08/24 03:49:17;;;;;;;13.48;8.75;;;17.10;99.90;;;;;;5026561;28;20398;-56
2022/08/24 03:51:43;;;;;;;17.53;9.40;;;17.00;99.90;;;;;;5032127;28;20519;-55
2022/08/24 03:54:09;;;;;;;14.52;8.32;;;16.90;99.90;;;;;;5031225;28;20914;-55
2022/08/24 03:56:35;;;;;;;14.60;9.07;;;16.90;1.00;;;;;;5031244;28;20502;-56
2022/08/24 03:59:01;;;;;;;15.80;8.77;;;16.90;1.00;;;;;;5030603;28;20490;-55
2022/08/24 04:01:27;;;;;;;14.13;9.23;;;17.00;99.90;;;;;;5030659;28;20414;-57
2022/08/24 04:03:54;;;;;;;13.77;8.40;;;16.90;1.00;;;;;;5031151;28;20431;-56
2022/08/24 04:06:21;;;;;;;14.75;8.70;;;16.90;1.00;;;;;;5030333;28;20382;-56
2022/08/24 04:08:47;;;;;;;16.38;10.15;;;16.90;1.00;;;;;;5030607;28;20776;-56
2022/08/24 04:11:16;;;;;;;14.23;9.83;;;17.00;99.90;;;;;;5029919;28;20930;-56
2022/08/24 04:13:43;;;;;;;18.40;9.67;;;16.90;1.00;;;;;;5029959;28;20414;-55
2022/08/24 04:16:11;;;;;;;18.90;9.90;;;16.90;1.00;;;;;;5029459;28;20473;-55
2022/08/24 04:18:37;;;;;;;15.48;9.40;;;17.00;1.00;;;;;;5030309;28;20395;-55
2022/08/24 04:21:04;;;;;;;17.50;10.10;;;16.90;1.00;;;;;;5025121;28;20530;-54
2022/08/24 04:23:32;;;;;;;14.32;9.65;;;16.80;1.00;;;;;;5028545;28;20406;-55
2022/08/24 04:26:02;;;;;;;14.87;9.00;;;16.70;1.00;;;;;;5023495;28;20554;-55
2022/08/24 04:28:29;;;;;;;19.07;9.60;;;16.60;1.00;;;;;;5021703;28;20551;-55
2022/08/24 04:30:56;;;;;;;16.80;9.55;;;16.60;1.00;;;;;;5010700;28;20438;-55
2022/08/24 04:33:22;;;;;;;18.45;10.95;;;16.70;1.00;;;;;;5026345;28;20470;-55
2022/08/24 04:35:48;;;;;;;15.27;10.10;;;16.60;1.00;;;;;;5030257;28;20883;-55
2022/08/24 04:38:16;;;;;;;14.70;9.50;;;16.60;1.00;;;;;;5027163;28;20964;-55
2022/08/24 04:40:43;;;;;;;14.80;9.93;;;16.60;1.00;;;;;;5029896;28;20391;-55
2022/08/24 04:43:10;;;;;;;15.15;10.52;;;16.60;1.00;;;;;;5028815;28;20853;-55
2022/08/24 04:45:40;;;;;;;15.18;9.63;;;16.80;1.00;;;;;;5029993;28;20387;-55
2022/08/24 04:48:06;;;;;;;15.52;10.15;;;16.90;1.00;;;;;;5028988;28;20510;-54
2022/08/24 04:50:37;;;;;;;16.48;10.00;;;16.90;1.00;;;;;;5030837;28;20406;-55
2022/08/24 04:53:05;;;;;;;15.18;10.05;;;16.90;1.00;;;;;;5029768;28;20414;-54
2022/08/24 04:55:31;;;;;;;15.68;10.00;;;17.10;1.00;;;;;;5029173;28;20414;-55
2022/08/24 04:57:57;;;;;;;14.48;8.95;;;16.90;1.00;;;;;;5030183;28;20392;-55
2022/08/24 05:00:23;;;;;;;16.38;9.48;;;16.90;1.00;;;;;;5026114;28;21026;-55
2022/08/24 05:02:48;;;;;;;16.05;9.60;;;17.00;1.00;;;;;;5029578;28;20403;-55
2022/08/24 05:05:14;;;;;;;15.00;9.40;;;17.10;1.00;;;;;;5028491;28;20784;-55
2022/08/24 05:07:40;;;;;;;16.75;9.40;;;17.30;1.00;;;;;;5030068;28;20415;-55
2022/08/24 05:10:09;;;;;;;15.32;10.27;;;17.50;99.90;;;;;;5027127;28;20438;-55
2022/08/24 05:12:36;;;;;;;16.92;9.10;;;17.60;99.90;;;;;;5027307;28;20510;-56
2022/08/24 05:15:02;;;;;;;18.55;10.07;;;17.70;99.90;;;;;;5029385;28;20861;-55
2022/08/24 05:17:27;;;;;;;15.27;9.13;;;17.80;99.90;;;;;;5028805;28;20592;-55
2022/08/24 05:19:53;;;;;;;15.60;9.40;;;17.90;99.90;;;;;;5029108;28;20394;-55
2022/08/24 05:22:19;;;;;;;19.40;9.20;;;18.00;99.90;;;;;;5028577;28;20856;-55
2022/08/24 05:24:45;;;;;;;17.73;8.83;;;18.10;99.90;;;;;;5029535;28;20436;-55
2022/08/24 05:27:11;;;;;;;16.10;8.90;;;18.20;99.90;;;;;;5008343;28;20424;-55
2022/08/24 05:29:36;;;;;;;15.77;8.77;;;18.40;34.90;;;;;;5022404;28;20482;-55
2022/08/24 05:32:02;;;;;;;12.93;8.87;;;18.50;1.00;;;;;;5028486;28;20486;-56
2022/08/24 05:34:28;;;;;;;16.88;9.20;;;18.70;99.90;;;;;;5028325;28;20494;-55
2022/08/24 05:36:54;;;;;;;14.32;10.15;;;18.90;51.20;;;;;;5026886;28;20529;-55
2022/08/24 05:39:19;;;;;;;14.70;8.90;;;19.00;99.90;;;;;;5028045;28;20398;-56
2022/08/24 05:41:46;;;;;;;14.60;9.70;;;19.10;1.00;;;;;;5028480;28;20436;-55
2022/08/24 05:44:14;;;;;;;16.33;9.90;;;19.30;99.90;;;;;;5025768;28;20425;-55
2022/08/24 05:46:40;;;;;;;14.32;8.90;;;19.50;1.00;;;;;;5028897;28;20386;-55
2022/08/24 05:49:07;;;;;;;14.53;8.90;;;19.70;1.00;;;;;;5027800;28;20387;-54
2022/08/24 05:51:33;;;;;;;14.73;9.20;;;20.20;12.50;;;;;;5026748;28;20828;-55
2022/08/24 05:53:59;;;;;;;14.57;9.00;;;20.40;99.90;;;;;;5026887;28;20422;-55
2022/08/24 05:56:26;;;;;;;17.93;8.97;;;20.80;98.90;;;;;;5027733;28;21011;-55
2022/08/24 05:58:52;;;;;;;12.00;8.40;;;;;;;;;;5028513;28;20719;-55
2022/08/24 06:01:24;;;;;;;14.00;8.35;;;;;;;;;;5027479;28;20516;-56
2022/08/24 06:03:51;;;;;;;14.48;8.68;;;24.30;1.00;;;;;;5027037;28;20474;-57
2022/08/24 06:06:18;;;;;;;13.85;7.90;;;25.70;99.90;;;;;;5024038;28;20859;-56
2022/08/24 06:08:47;;;;;;;13.05;8.18;;;26.60;99.90;;;;;;5028537;28;20685;-56
2022/08/24 06:11:26;;;;;;;16.90;9.30;;;26.70;99.90;;;;;;5025986;28;20437;-56
2022/08/24 06:13:53;;;;;;;13.70;8.07;;;27.70;99.90;;;;;;5026900;28;20415;-56
2022/08/24 06:16:20;;;;;;;12.35;8.90;;;28.20;99.90;;;;;;5026869;28;20402;-56
2022/08/24 06:18:46;;;;;;;13.50;8.90;;;28.70;99.90;;;;;;5027135;28;20737;-56
2022/08/24 06:21:15;;;;;;;13.45;8.15;;;28.80;99.90;;;;;;5027409;28;20489;-56
2022/08/24 06:23:42;;;;;;;15.07;8.60;;;29.00;99.90;;;;;;5026193;28;20767;-56
2022/08/24 06:29:03;;;;;;;13.90;9.02;;;29.20;99.90;;;;;;5110829;27;20436;-55
2022/08/24 06:31:29;;;;;;;16.70;9.10;;;29.10;99.90;;;;;;5105298;28;20522;-55
2022/08/24 06:33:55;;;;;;;13.13;7.63;;;29.30;99.90;;;;;;5104291;28;20482;-55
2022/08/24 06:36:21;;;;;;;14.63;8.30;;;29.60;99.90;;;;;;5103257;28;20850;-56
2022/08/24 06:38:47;;;;;;;12.10;7.68;;;29.90;99.90;;;;;;5100136;28;20472;-56
2022/08/24 06:41:13;;;;;;;13.00;7.60;;;30.50;99.90;;;;;;5103159;28;20862;-56
2022/08/24 06:43:38;;;;;;;11.02;8.40;;;31.10;99.90;;;;;;5105466;28;20386;-56
2022/08/24 06:46:05;;;;;;;13.07;8.80;;;31.60;99.90;;;;;;5105063;28;20382;-55
2022/08/24 06:48:31;;;;;;;13.18;9.00;;;32.10;99.90;;;;;;5104521;28;20792;-56
2022/08/24 06:50:57;;;;;;;12.35;8.52;;;31.80;99.90;;;;;;5105371;28;20385;-56
2022/08/24 06:53:24;;;;;;;11.43;8.82;;;31.50;99.90;;;;;;5104753;28;20484;-57
2022/08/24 06:55:56;;;;;;;13.82;8.93;;;32.10;99.90;;;;;;5104116;28;20400;-56
2022/08/24 06:58:24;;;;;;;11.25;8.20;;;32.10;99.90;;;;;;5096198;28;20395;-56
2022/08/24 07:00:49;;;;;;;12.30;8.80;;;32.10;99.90;;;;;;5104231;28;20415;-56
2022/08/24 07:03:16;;;;;;;13.00;8.37;;;32.50;99.90;;;;;;5103916;28;20828;-56
2022/08/24 07:05:56;;;;;;;13.63;9.38;;;33.20;99.90;;;;;;5102361;28;20393;-57
2022/08/24 07:08:23;;;;;;;12.80;9.70;;;33.60;99.90;;;;;;5097226;28;20412;-55
2022/08/24 07:10:50;;;;;;;14.30;8.50;;;34.30;99.90;;;;;;5098073;28;20661;-56
2022/08/24 07:13:16;;;;;;;12.80;10.10;;;34.70;99.90;;;;;;5098937;28;20472;-56
2022/08/24 07:15:42;;;;;;;13.18;9.10;;;35.00;99.90;;;;;;5103844;28;20389;-56
2022/08/24 07:18:15;;;;;;;12.50;9.77;;;34.50;99.90;;;;;;5101597;28;20401;-55
2022/08/24 07:20:41;;;;;;;13.40;9.50;;;35.10;99.90;;;;;;5101931;28;20420;-57
2022/08/24 07:23:08;;;;;;;12.45;10.60;;;35.50;99.90;;;;;;5103525;28;20470;-55
2022/08/24 07:25:34;;;;;;;11.67;8.70;;;35.80;99.90;;;;;;5103559;28;20401;-56
2022/08/24 07:28:00;;;;;;;13.23;7.90;;;36.10;99.90;;;;;;5097114;28;20444;-57
2022/08/24 07:30:29;;;;;;;13.83;8.60;;;35.80;99.90;;;;;;5099650;28;20372;-56
2022/08/24 07:32:56;;;;;;;11.95;9.05;;;35.40;99.90;;;;;;5079003;28;20409;-56
2022/08/24 07:35:24;;;;;;;12.02;7.85;;;34.70;99.90;;;;;;5095449;28;20405;-56
2022/08/24 07:37:49;;;;;;;12.00;8.00;;;34.50;99.90;;;;;;5076499;28;20443;-58
2022/08/24 07:40:16;;;;;;;12.45;7.70;;;34.80;99.90;;;;;;5079685;28;20453;-56
2022/08/24 07:42:43;;;;;;;9.93;7.38;;;35.50;99.90;;;;;;5081982;28;20382;-56
2022/08/24 07:45:09;;;;;;;9.60;7.07;;;35.90;99.90;;;;;;5082865;28;20393;-55
2022/08/24 07:47:36;;;;;;;10.10;7.30;;;36.00;99.90;;;;;;5080470;28;20429;-56
2022/08/24 07:50:01;;;;;;;12.52;6.88;;;37.10;99.90;;;;;;5081332;28;20386;-56
2022/08/24 07:52:27;;;;;;;13.48;7.85;;;37.30;99.90;;;;;;5079650;28;20392;-56
2022/08/24 07:54:53;;;;;;;13.67;7.60;;;36.90;99.90;;;;;;5082081;28;20401;-56
2022/08/24 07:57:18;;;;;;;9.20;6.93;;;36.90;99.90;;;;;;5079041;28;20404;-56
2022/08/24 07:59:46;;;;;;;11.32;7.55;;;36.80;99.90;;;;;;5084807;28;20398;-56
2022/08/24 08:02:13;;;;;;;9.40;6.75;;;36.50;99.90;;;;;;5084619;28;20470;-55
2022/08/24 08:04:39;;;;;;;11.25;6.95;;;36.50;99.90;;;;;;5090920;28;20415;-56
2022/08/24 08:07:06;;;;;;;9.63;5.70;;;37.10;99.90;;;;;;5090084;28;20725;-55
2022/08/24 08:09:33;;;;;;;8.88;5.60;;;37.10;99.90;;;;;;5087124;28;20402;-57
2022/08/24 08:11:58;;;;;;;7.70;5.80;;;36.70;99.90;;;;;;5087710;28;20442;-57
2022/08/24 08:14:24;;;;;;;8.30;5.80;;;37.20;99.90;;;;;;5077973;28;20384;-56
2022/08/24 08:16:50;;;;;;;10.02;6.43;;;37.30;99.90;;;;;;5061671;28;20409;-56
2022/08/24 08:19:16;;;;;;;8.10;6.53;;;37.50;99.90;;;;;;5086176;28;20503;-58
2022/08/24 08:24:42;;;;;;;8.80;3.60;;;38.20;99.90;;;;;;5088930;28;20843;-57
2022/08/24 08:27:09;;;;;;;7.38;3.13;;;38.10;99.90;;;;;;5081061;28;20556;-56
2022/08/24 08:29:35;;;;;;;9.60;5.40;;;38.30;99.90;;;;;;5081268;28;20374;-56
2022/08/24 08:32:01;;;;;;;10.82;6.00;;;37.90;99.90;;;;;;5079269;28;20384;-57
2022/08/24 08:34:28;;;;;;;7.97;6.03;;;37.80;99.90;;;;;;5080579;28;20470;-57
2022/08/24 08:36:54;;;;;;;9.48;6.47;;;38.30;99.90;;;;;;5083227;28;20390;-57
2022/08/24 08:39:21;;;;;;;7.53;5.80;;;38.50;99.90;;;;;;5080762;28;20394;-57
2022/08/24 08:42:17;;;;;;;8.38;6.70;;;38.20;99.90;;;;;;5079097;28;20381;-57
2022/08/24 08:44:51;;;;;;;9.60;6.78;;;37.50;99.90;;;;;;5077931;28;20477;-59
2022/08/24 08:47:55;;;;;;;8.20;6.40;;;37.80;99.90;;;;;;5079680;28;20412;-57
2022/08/24 08:50:51;;;;;;;7.38;4.10;;;38.10;99.90;;;;;;5077412;28;20471;-58
2022/08/24 08:53:25;;;;;;;6.78;4.63;;;39.00;99.90;;;;;;5063085;28;20497;-58
2022/08/24 08:56:13;;;;;;;8.30;4.30;;;39.10;99.90;;;;;;5088032;28;20421;-57
2022/08/24 08:59:16;;;;;;;6.10;2.90;;;39.10;99.90;;;;;;5088693;28;20509;-59
2022/08/24 09:01:53;;;;;;;8.13;3.17;;;39.00;99.90;;;;;;5089583;28;20377;-57
2022/08/24 09:04:46;;;;;;;8.10;2.90;;;39.00;99.90;;;;;;5086888;28;20412;-56
2022/08/24 09:07:36;;;;;;;7.03;3.05;;;39.40;99.90;;;;;;5079119;28;20453;-57
2022/08/24 09:10:04;;;;;;;6.93;2.80;;;39.70;99.90;;;;;;5085924;28;20482;-57
2022/08/24 09:12:30;;;;;;;5.72;2.00;;;40.10;99.90;;;;;;5086124;28;21017;-57
2022/08/24 09:15:13;;;;;;;6.43;2.50;;;40.40;99.90;;;;;;5084461;28;20475;-58
2022/08/24 09:17:42;;;;;;;7.90;2.73;;;40.30;99.90;;;;;;5089495;28;20462;-58
2022/08/24 09:20:14;;;;;;;5.85;2.58;;;40.80;99.90;;;;;;5089121;28;20421;-56
2022/08/24 09:22:46;;;;;;;7.40;2.50;;;41.20;99.90;;;;;;5089223;28;20383;-59
2022/08/24 09:25:23;;;;;;;6.60;2.10;;;41.20;99.90;;;;;;5074950;28;20388;-57
2022/08/24 09:27:59;;;;;;;6.57;2.85;;;40.90;99.90;;;;;;5078488;28;20435;-58
2022/08/24 09:30:32;;;;;;;6.88;2.30;;;40.90;99.90;;;;;;5084905;28;20449;-57
2022/08/24 09:33:26;;;;;;;5.65;2.10;;;40.60;99.90;;;;;;5087562;28;20949;-56
2022/08/24 09:36:03;;;;;;;6.70;2.35;;;41.20;99.90;;;;;;5085102;28;20587;-56
2022/08/24 09:38:47;;;;;;;6.20;2.40;;;41.20;99.90;;;;;;5084495;28;20409;-57
2022/08/24 09:41:45;;;;;;;7.40;2.53;;;41.10;99.90;;;;;;5080161;28;20786;-56
2022/08/24 09:44:28;;;;;;;9.13;2.78;;;41.30;99.90;;;;;;4995242;28;20752;-56
2022/08/24 09:47:11;;;;;;;6.10;2.50;;;40.70;99.90;;;;;;5087292;28;20406;-56
2022/08/24 09:50:14;;;;;;;6.72;2.50;;;40.80;99.90;;;;;;5087175;28;20878;-57
2022/08/24 09:52:59;;;;;;;6.80;2.30;;;40.90;99.90;;;;;;5088254;28;20424;-56
2022/08/24 09:55:48;;;;;;;6.00;2.30;;;41.10;99.90;;;;;;5085829;28;20390;-58
2022/08/24 09:58:36;;;;;;;7.35;3.25;;;40.80;99.90;;;;;;5086611;28;20437;-56
2022/08/24 10:01:17;;;;;;;7.40;2.55;;;40.60;99.90;;;;;;5087431;28;20390;-57
2022/08/24 10:03:48;;;;;;;6.63;2.92;;;40.30;99.90;;;;;;5085048;28;20401;-57
2022/08/24 10:06:36;;;;;;;7.85;3.10;;;39.30;99.90;;;;;;5082070;28;20420;-57
2022/08/24 10:09:08;;;;;;;6.87;2.50;;;38.80;99.90;;;;;;5086977;28;20523;-57
2022/08/24 10:11:48;;;;;;;7.10;2.90;;;38.60;99.90;;;;;;5080606;28;20428;-57
2022/08/24 10:14:20;;;;;;;7.78;2.72;;;39.00;99.90;;;;;;5083932;28;20405;-56
2022/08/24 10:16:58;;;;;;;9.30;2.70;;;38.50;99.90;;;;;;5087997;28;20461;-57
2022/08/24 10:19:54;;;;;;;6.95;2.70;;;38.80;99.90;;;;;;5083851;28;20421;-57
2022/08/24 10:22:57;;;;;;;6.72;2.42;;;38.90;99.90;;;;;;5086153;28;20866;-57
2022/08/24 10:25:45;;;;;;;6.50;2.90;;;39.50;99.90;;;;;;5087484;28;20393;-57
2022/08/24 10:28:37;;;;;;;7.80;2.70;;;39.20;99.90;;;;;;5086770;28;20886;-56
2022/08/24 10:31:14;;;;;;;8.13;2.57;;;38.90;99.90;;;;;;5087970;28;20481;-58
2022/08/24 10:34:01;;;;;;;6.22;2.35;;;38.30;99.90;;;;;;5088096;28;20728;-57
2022/08/24 10:36:42;;;;;;;7.50;2.70;;;37.40;99.90;;;;;;5083998;28;20406;-58
2022/08/24 10:39:42;;;;;;;7.50;2.80;;;36.90;99.90;;;;;;5087315;28;20922;-58
2022/08/24 10:46:00;;;;;;;7.57;6.07;;;36.30;99.90;;;;;;5086168;28;20471;-57
2022/08/24 10:48:31;;;;;;;7.20;6.13;;;35.60;99.90;;;;;;5087120;28;20758;-57
2022/08/24 10:51:16;;;;;;;8.50;6.40;;;35.00;99.90;;;;;;5086760;28;20462;-57
2022/08/24 10:53:48;;;;;;;8.38;5.90;;;34.30;99.90;;;;;;5088091;28;20881;-57
2022/08/24 10:56:18;;;;;;;7.80;6.10;;;34.40;99.90;;;;;;5084754;28;20409;-58
2022/08/24 10:58:49;;;;;;;7.57;5.85;;;34.10;99.90;;;;;;5062667;28;20969;-58
2022/08/24 11:01:32;;;;;;;7.00;5.68;;;34.20;99.90;;;;;;5078823;28;20463;-58
2022/08/24 11:04:03;;;;;;;8.63;5.60;;;34.30;99.90;;;;;;5079097;28;20395;-56
2022/08/24 11:06:41;;;;;;;8.70;5.97;;;34.10;99.90;;;;;;5081355;28;20531;-57
2022/08/24 11:09:13;;;;;;;7.80;6.15;;;34.10;99.90;;;;;;5078415;28;20410;-58
2022/08/24 11:11:42;;;;;;;8.50;6.50;;;34.20;99.90;;;;;;5083009;28;20394;-57
2022/08/24 11:14:23;;;;;;;7.67;6.20;;;34.20;99.90;;;;;;5063363;28;20481;-57
2022/08/24 11:16:49;;;;;;;9.32;6.32;;;33.90;99.90;;;;;;5090022;28;20390;-58
2022/08/24 11:19:34;;;;;;;7.50;5.88;;;34.10;99.90;;;;;;5088043;28;20473;-57
2022/08/24 11:22:20;;;;;;;8.68;6.20;;;34.10;99.90;;;;;;5084609;28;20390;-58
2022/08/24 11:24:51;;;;;;;7.35;6.40;;;34.00;99.90;;;;;;5090345;28;20394;-56
2022/08/24 11:27:16;;;;;;;9.20;6.40;;;33.80;99.90;;;;;;5089360;28;20413;-56
2022/08/24 11:29:51;;;;;;;8.30;6.30;;;34.00;99.90;;;;;;5086409;28;20400;-56
2022/08/24 11:32:28;;;;;;;7.03;5.80;;;33.90;99.90;;;;;;5070845;28;20391;-55
2022/08/24 11:34:58;;;;;;;6.87;5.20;;;34.00;99.90;;;;;;5090013;28;20410;-56
2022/08/24 11:37:34;;;;;;;6.90;5.53;;;34.20;99.90;;;;;;5087781;28;20747;-56
2022/08/24 11:40:01;;;;;;;7.83;6.00;;;34.40;99.90;;;;;;5090818;28;20386;-56
2022/08/24 11:42:41;;;;;;;8.40;6.30;;;34.40;99.90;;;;;;5090336;28;20420;-56
2022/08/24 11:45:27;;;;;;;8.15;6.40;;;34.10;99.90;;;;;;5091318;28;20411;-57
2022/08/24 11:48:22;;;;;;;7.03;5.30;;;33.80;99.90;;;;;;5090804;28;20406;-56
2022/08/24 11:51:20;;;;;;;6.90;5.97;;;34.90;99.90;;;;;;5091322;28;20370;-56
2022/08/24 11:53:52;;;;;;;7.45;5.68;;;34.10;99.90;;;;;;5072567;28;20697;-56
2022/08/24 11:56:46;;;;;;;8.40;7.10;;;33.80;99.90;;;;;;5090251;28;20393;-56
2022/08/24 11:59:23;;;;;;;8.20;6.00;;;33.70;99.90;;;;;;5046681;28;20425;-56
2022/08/24 12:02:16;;;;;;;8.40;5.70;;;33.70;99.90;;;;;;5090490;28;20416;-56
2022/08/24 12:05:07;;;;;;;8.82;6.43;;;33.80;99.90;;;;;;5091030;28;20374;-54
2022/08/24 12:08:07;;;;;;;7.88;6.32;;;34.00;99.90;;;;;;5089485;28;20413;-54
2022/08/24 12:11:10;;;;;;;8.35;6.07;;;33.80;99.90;;;;;;5089455;28;20394;-56
2022/08/24 12:14:06;;;;;;;7.03;5.60;;;33.90;99.90;;;;;;5084427;28;20464;-55
2022/08/24 12:16:38;;;;;;;8.63;5.47;;;33.60;99.90;;;;;;5054520;28;21013;-56
2022/08/24 12:19:06;;;;;;;7.75;6.05;;;33.60;99.90;;;;;;5070203;28;20868;-56
2022/08/24 12:21:36;;;;;;;7.38;6.10;;;33.60;99.90;;;;;;5069483;28;20391;-56
2022/08/24 12:24:15;;;;;;;9.05;5.20;;;33.90;99.90;;;;;;5070212;28;20380;-56
2022/08/24 12:26:52;;;;;;;10.50;5.75;;;34.00;99.90;;;;;;5068415;28;20391;-56
2022/08/24 12:29:27;;;;;;;9.02;6.07;;;34.10;99.90;;;;;;5068974;28;20388;-56
2022/08/24 12:32:04;;;;;;;7.28;6.18;;;34.20;99.90;;;;;;5069982;28;20384;-57
2022/08/24 12:34:29;;;;;;;7.95;6.43;;;34.10;99.90;;;;;;5069148;28;20521;-57
2022/08/24 12:37:00;;;;;;;7.22;5.72;;;34.20;99.90;;;;;;5069971;28;20483;-56
2022/08/24 12:39:33;;;;;;;7.95;6.35;;;34.30;99.90;;;;;;5069083;28;20383;-57
2022/08/24 12:42:23;;;;;;;6.90;5.50;;;34.30;99.90;;;;;;5069641;28;20387;-56
2022/08/24 12:44:54;;;;;;;7.80;6.32;;;34.20;99.90;;;;;;5051594;28;20388;-56
2022/08/24 12:47:58;;;;;;;7.50;6.00;;;34.10;99.90;;;;;;5068890;28;20429;-56
2022/08/24 12:50:35;;;;;;;7.88;5.53;;;34.30;99.90;;;;;;4987244;28;20402;-56
2022/08/24 12:53:07;;;;;;;7.93;6.70;;;34.60;99.90;;;;;;5058885;28;20395;-56
2022/08/24 12:55:47;;;;;;;6.85;5.90;;;34.60;99.90;;;;;;5050611;28;20991;-57
2022/08/24 12:58:54;;;;;;;6.70;5.90;;;34.40;99.90;;;;;;5069092;28;20526;-55
2022/08/24 13:01:22;;;;;;;6.90;5.60;;;34.10;99.90;;;;;;5068647;28;20429;-56
2022/08/24 13:04:19;;;;;;;7.10;6.40;;;33.90;99.90;;;;;;5069412;28;20426;-56
2022/08/24 13:06:57;;;;;;;7.75;6.10;;;34.00;99.90;;;;;;5069148;28;20391;-56
2022/08/24 13:09:33;;;;;;;7.07;5.40;;;34.10;99.90;;;;;;5068359;28;20434;-56
2022/08/24 13:12:31;;;;;;;8.20;5.10;;;34.10;99.90;;;;;;5069057;28;20463;-56
2022/08/24 13:15:21;;;;;;;7.20;5.90;;;34.10;99.90;;;;;;5085083;28;20386;-56
2022/08/24 13:17:57;;;;;;;7.15;5.20;;;34.00;99.90;;;;;;5089217;28;20397;-56